Time;durP1;ratioP1;P1;durP2;ratioP2;P2;SDS_P1;SDS_P2;PMS_P1;PMS_P2;Temp;Humidity;BMP_temperature;BMP_pressure;BME280_temperature;BME280_humidity;BME280_pressure;Samples;Min_cycle;Max_cycle;Signal;HPM_P1;HPM_P2
2021/07/05 00:01:08;;;;;;;3.67;1.50;;;16.20;99.90;;;;;;5050808;28;20499;-67
2021/07/05 00:03:35;;;;;;;2.10;1.10;;;16.30;99.90;;;;;;5051669;28;20804;-65
2021/07/05 00:06:02;;;;;;;2.57;1.37;;;16.40;99.90;;;;;;5051114;28;20480;-65
2021/07/05 00:08:28;;;;;;;3.10;1.33;;;16.40;99.90;;;;;;5051580;28;20463;-68
2021/07/05 00:10:56;;;;;;;4.13;1.63;;;16.40;99.90;;;;;;5050583;28;20909;-64
2021/07/05 00:13:24;;;;;;;2.80;1.23;;;16.40;99.90;;;;;;5051321;28;20443;-65
2021/07/05 00:15:51;;;;;;;2.27;1.30;;;16.30;99.90;;;;;;5050881;28;20801;-67
2021/07/05 00:18:18;;;;;;;2.60;1.50;;;16.20;99.90;;;;;;5050939;28;21148;-66
2021/07/05 00:20:46;;;;;;;3.40;1.37;;;16.20;99.90;;;;;;5050022;28;20538;-65
2021/07/05 00:23:14;;;;;;;2.50;1.40;;;16.20;99.90;;;;;;5051273;28;20450;-67
2021/07/05 00:25:42;;;;;;;4.47;1.53;;;16.20;99.90;;;;;;5051029;28;20965;-66
2021/07/05 00:28:08;;;;;;;2.60;1.60;;;16.10;99.90;;;;;;5050687;28;20444;-66
2021/07/05 00:30:37;;;;;;;5.23;2.00;;;16.10;99.90;;;;;;5050194;28;20462;-65
2021/07/05 00:33:05;;;;;;;3.00;1.63;;;16.00;99.90;;;;;;5050997;28;20462;-66
2021/07/05 00:35:32;;;;;;;3.67;1.73;;;16.10;99.90;;;;;;5050995;28;20511;-66
2021/07/05 00:37:59;;;;;;;3.33;1.53;;;16.10;99.90;;;;;;5050062;28;21010;-65
2021/07/05 00:40:27;;;;;;;3.57;1.50;;;16.10;99.90;;;;;;5049754;28;20846;-66
2021/07/05 00:42:55;;;;;;;3.57;1.50;;;16.10;99.90;;;;;;5050581;28;20495;-67
2021/07/05 00:45:25;;;;;;;2.70;1.40;;;16.20;99.90;;;;;;5050462;28;21207;-67
2021/07/05 00:47:54;;;;;;;5.20;1.50;;;16.20;99.90;;;;;;5050726;28;20530;-66
2021/07/05 00:50:22;;;;;;;2.80;1.20;;;16.30;99.90;;;;;;5049735;28;20817;-66
2021/07/05 00:52:52;;;;;;;4.23;1.40;;;16.30;99.90;;;;;;5050805;28;20444;-66
2021/07/05 00:55:20;;;;;;;3.07;1.53;;;16.30;99.90;;;;;;5050631;28;20428;-67
2021/07/05 00:57:47;;;;;;;2.40;1.43;;;16.30;99.90;;;;;;5050212;28;20868;-67
2021/07/05 01:00:16;;;;;;;2.70;1.47;;;16.30;99.90;;;;;;5047748;28;20527;-66
2021/07/05 01:02:44;;;;;;;3.30;1.50;;;16.30;99.90;;;;;;5050252;28;20446;-66
2021/07/05 01:05:13;;;;;;;2.63;1.70;;;16.40;99.90;;;;;;5050329;28;20483;-66
2021/07/05 01:07:41;;;;;;;2.43;1.43;;;16.50;99.90;;;;;;5049706;28;20472;-66
2021/07/05 01:10:09;;;;;;;3.77;1.50;;;16.40;99.90;;;;;;5049213;28;20958;-66
2021/07/05 01:12:38;;;;;;;3.07;1.70;;;16.50;99.90;;;;;;5050376;28;20444;-66
2021/07/05 01:15:06;;;;;;;3.97;1.63;;;16.60;99.90;;;;;;5050192;28;20803;-65
2021/07/05 01:17:33;;;;;;;3.53;1.40;;;16.60;99.90;;;;;;5049805;28;20471;-64
2021/07/05 01:20:00;;;;;;;3.13;1.50;;;16.60;99.90;;;;;;5048935;28;20439;-67
2021/07/05 01:22:28;;;;;;;2.87;1.53;;;16.60;99.90;;;;;;5049807;28;20456;-64
2021/07/05 01:24:55;;;;;;;3.97;1.60;;;16.60;99.90;;;;;;5050255;28;20443;-66
2021/07/05 01:27:23;;;;;;;3.40;1.43;;;16.60;99.90;;;;;;5049950;28;20582;-68
2021/07/05 01:29:50;;;;;;;5.03;1.90;;;16.60;99.90;;;;;;5049666;28;20513;-66
2021/07/05 01:32:17;;;;;;;3.00;1.57;;;16.60;99.90;;;;;;5050361;28;20542;-65
2021/07/05 01:34:44;;;;;;;2.73;1.83;;;16.50;99.90;;;;;;5050100;28;20432;-65
2021/07/05 01:37:12;;;;;;;2.90;1.70;;;16.50;99.90;;;;;;5049871;28;20445;-68
2021/07/05 01:39:40;;;;;;;3.10;1.50;;;16.50;99.90;;;;;;5049156;28;20448;-68
2021/07/05 01:42:07;;;;;;;4.43;1.50;;;16.50;99.90;;;;;;5050066;28;20825;-66
2021/07/05 01:44:34;;;;;;;2.97;1.53;;;16.50;99.90;;;;;;5049923;28;20531;-65
2021/07/05 01:47:02;;;;;;;3.60;1.60;;;16.50;99.90;;;;;;5049213;28;20480;-66
2021/07/05 01:49:28;;;;;;;3.10;1.50;;;16.50;99.90;;;;;;5049420;28;20443;-66
2021/07/05 01:51:55;;;;;;;3.93;1.30;;;16.60;99.90;;;;;;5049413;28;20969;-65
2021/07/05 01:54:23;;;;;;;3.27;1.60;;;16.60;99.90;;;;;;5049870;28;20436;-66
2021/07/05 01:56:51;;;;;;;3.43;1.40;;;16.70;99.90;;;;;;5048989;28;20483;-67
2021/07/05 01:59:18;;;;;;;3.80;1.43;;;16.70;99.90;;;;;;5048813;28;20543;-65
2021/07/05 02:01:45;;;;;;;2.80;1.40;;;16.70;99.90;;;;;;5049267;28;20464;-66
2021/07/05 02:04:12;;;;;;;2.57;1.50;;;16.80;99.90;;;;;;5049428;28;20930;-67
2021/07/05 02:06:38;;;;;;;2.50;1.27;;;16.80;99.90;;;;;;5049071;28;20484;-65
2021/07/05 02:09:07;;;;;;;5.20;1.97;;;16.80;99.90;;;;;;5048727;28;21144;-66
2021/07/05 02:11:35;;;;;;;3.63;1.90;;;16.80;99.90;;;;;;5049177;28;20849;-67
2021/07/05 02:14:04;;;;;;;3.23;1.50;;;16.80;99.90;;;;;;5049248;28;20448;-67
2021/07/05 02:16:31;;;;;;;2.70;1.40;;;16.80;99.90;;;;;;5049060;28;20534;-65
2021/07/05 02:18:58;;;;;;;6.77;1.50;;;16.70;99.90;;;;;;5051944;28;20972;-66
2021/07/05 02:21:25;;;;;;;7.90;2.53;;;16.70;99.90;;;;;;5053136;28;20474;-66
2021/07/05 02:23:52;;;;;;;2.70;1.43;;;16.70;99.90;;;;;;5053304;28;20452;-67
2021/07/05 02:26:19;;;;;;;3.43;1.70;;;16.70;99.90;;;;;;5053001;28;20472;-66
2021/07/05 02:28:46;;;;;;;4.10;1.50;;;16.70;99.90;;;;;;5052794;28;20448;-66
2021/07/05 02:31:14;;;;;;;2.50;1.30;;;16.80;99.90;;;;;;5052043;28;20551;-68
2021/07/05 02:33:41;;;;;;;6.00;1.87;;;16.80;99.90;;;;;;5052887;28;20448;-66
2021/07/05 02:36:09;;;;;;;8.37;1.53;;;16.80;99.90;;;;;;5052618;28;20535;-65
2021/07/05 02:38:38;;;;;;;3.30;1.80;;;16.80;99.90;;;;;;5053025;28;20817;-66
2021/07/05 02:41:05;;;;;;;3.20;1.90;;;16.90;99.90;;;;;;5052211;28;20468;-65
2021/07/05 02:43:32;;;;;;;4.30;2.53;;;16.90;99.90;;;;;;5052684;28;20454;-65
2021/07/05 02:46:00;;;;;;;3.70;2.13;;;17.00;99.90;;;;;;5052811;28;20439;-65
2021/07/05 02:48:32;;;;;;;2.93;1.57;;;17.00;99.90;;;;;;5052609;28;20440;-66
2021/07/05 02:51:02;;;;;;;2.90;1.70;;;17.00;99.90;;;;;;5052060;28;20559;-65
2021/07/05 02:53:29;;;;;;;4.03;1.60;;;17.10;99.90;;;;;;5053021;28;20428;-67
2021/07/05 02:55:57;;;;;;;6.00;1.70;;;17.10;99.90;;;;;;5052349;28;20448;-66
2021/07/05 02:58:24;;;;;;;3.93;1.73;;;17.10;99.90;;;;;;5052747;28;20523;-66
2021/07/05 03:00:53;;;;;;;3.93;2.10;;;17.10;99.90;;;;;;5051699;28;20839;-67
2021/07/05 03:03:20;;;;;;;3.50;1.70;;;17.20;99.90;;;;;;5052383;28;20957;-65
2021/07/05 03:05:49;;;;;;;2.27;1.23;;;17.20;99.90;;;;;;5052301;28;20447;-65
2021/07/05 03:08:16;;;;;;;2.80;1.37;;;17.20;99.90;;;;;;5052235;28;20479;-66
2021/07/05 03:10:44;;;;;;;3.27;1.60;;;17.20;99.90;;;;;;5051317;28;20482;-65
2021/07/05 03:13:13;;;;;;;2.87;1.57;;;17.20;99.90;;;;;;5052441;28;20870;-66
2021/07/05 03:15:41;;;;;;;3.30;1.57;;;17.20;99.90;;;;;;5052353;28;20455;-65
2021/07/05 03:18:08;;;;;;;3.97;1.47;;;17.20;99.90;;;;;;5052214;28;20539;-68
2021/07/05 03:20:37;;;;;;;4.17;1.57;;;17.20;99.90;;;;;;5051479;28;20538;-65
2021/07/05 03:23:08;;;;;;;3.10;1.60;;;17.20;99.90;;;;;;5052065;28;20444;-68
2021/07/05 03:25:36;;;;;;;3.93;1.47;;;17.20;99.90;;;;;;5052441;28;20447;-65
2021/07/05 03:28:04;;;;;;;3.03;1.70;;;17.20;99.90;;;;;;5051792;28;20501;-66
2021/07/05 03:30:32;;;;;;;5.30;1.57;;;17.30;99.90;;;;;;5050250;28;20551;-64
2021/07/05 03:33:00;;;;;;;2.83;1.60;;;17.20;99.90;;;;;;5052314;28;20505;-63
2021/07/05 03:35:27;;;;;;;3.70;1.57;;;17.20;99.90;;;;;;5051564;28;20926;-66
2021/07/05 03:37:55;;;;;;;2.57;1.50;;;17.20;99.90;;;;;;5051724;28;20459;-66
2021/07/05 03:40:25;;;;;;;2.97;1.60;;;17.20;99.90;;;;;;5050968;28;20559;-67
2021/07/05 03:42:52;;;;;;;3.07;1.67;;;17.20;99.90;;;;;;5051990;28;20447;-67
2021/07/05 03:45:21;;;;;;;5.10;2.63;;;17.20;99.90;;;;;;5051969;28;20460;-65
2021/07/05 03:47:48;;;;;;;4.13;1.80;;;17.20;99.90;;;;;;5051472;28;20483;-65
2021/07/05 03:50:17;;;;;;;3.30;1.80;;;17.20;99.90;;;;;;5051067;28;20444;-64
2021/07/05 03:52:44;;;;;;;4.33;2.00;;;17.20;99.90;;;;;;5051681;28;20451;-64
2021/07/05 03:55:14;;;;;;;2.50;1.60;;;17.20;99.90;;;;;;5052126;28;20826;-63
2021/07/05 03:57:42;;;;;;;4.57;2.03;;;17.20;99.90;;;;;;5051372;28;20443;-67
2021/07/05 04:00:11;;;;;;;4.67;1.83;;;17.10;99.90;;;;;;5050837;28;20444;-65
2021/07/05 04:02:38;;;;;;;2.90;1.80;;;17.10;99.90;;;;;;5051226;28;20968;-65
2021/07/05 04:05:07;;;;;;;3.50;1.90;;;17.00;99.90;;;;;;5051627;28;20462;-65
2021/07/05 04:07:35;;;;;;;3.47;2.10;;;17.00;99.90;;;;;;5050643;28;20486;-65
2021/07/05 04:10:02;;;;;;;3.37;2.10;;;16.90;99.90;;;;;;5050602;28;20448;-66
2021/07/05 04:12:28;;;;;;;4.67;2.13;;;16.90;99.90;;;;;;5051228;28;20463;-65
2021/07/05 04:14:57;;;;;;;5.03;2.13;;;16.80;99.90;;;;;;5051007;28;20467;-66
2021/07/05 04:17:23;;;;;;;6.03;2.27;;;16.90;99.90;;;;;;5050564;28;20444;-66
2021/07/05 04:19:50;;;;;;;2.90;1.70;;;16.90;99.90;;;;;;5050132;28;20808;-63
2021/07/05 04:22:19;;;;;;;4.23;1.80;;;16.90;99.90;;;;;;5050531;28;20559;-65
2021/07/05 04:24:47;;;;;;;3.60;1.77;;;16.80;99.90;;;;;;5050654;28;21002;-65
2021/07/05 04:27:15;;;;;;;3.70;1.70;;;16.80;99.90;;;;;;5050592;28;20486;-65
2021/07/05 04:29:42;;;;;;;3.90;2.13;;;16.90;99.90;;;;;;5049815;28;20456;-65
2021/07/05 04:32:12;;;;;;;3.97;2.00;;;16.90;99.90;;;;;;5050903;28;20901;-65
2021/07/05 04:34:38;;;;;;;3.33;1.90;;;16.90;99.90;;;;;;5050873;28;20531;-66
2021/07/05 04:37:05;;;;;;;4.80;2.17;;;16.80;99.90;;;;;;5050685;28;20447;-65
2021/07/05 04:39:32;;;;;;;3.20;1.80;;;16.80;99.90;;;;;;5049691;28;20454;-66
2021/07/05 04:41:59;;;;;;;5.10;2.40;;;16.90;99.90;;;;;;5050263;28;20463;-65
2021/07/05 04:44:26;;;;;;;4.20;2.20;;;17.00;99.90;;;;;;5050795;28;20444;-64
2021/07/05 04:46:53;;;;;;;3.80;1.83;;;17.10;99.90;;;;;;5049959;28;20570;-63
2021/07/05 04:49:22;;;;;;;4.20;1.90;;;17.20;99.90;;;;;;5049024;28;20446;-66
2021/07/05 04:51:49;;;;;;;3.93;2.00;;;17.30;99.90;;;;;;5050110;28;20535;-65
2021/07/05 04:54:16;;;;;;;5.63;1.90;;;17.40;99.90;;;;;;5050393;28;20577;-65
2021/07/05 04:56:43;;;;;;;4.70;2.10;;;17.60;99.90;;;;;;5049515;28;20452;-65
2021/07/05 04:59:14;;;;;;;3.47;2.20;;;17.60;99.90;;;;;;5047503;28;20453;-66
2021/07/05 05:01:41;;;;;;;5.03;3.07;;;17.70;99.90;;;;;;5041846;28;20537;-65
2021/07/05 05:04:07;;;;;;;6.10;2.90;;;17.80;99.90;;;;;;5046797;28;20455;-65
2021/07/05 05:06:36;;;;;;;4.40;2.37;;;17.90;99.90;;;;;;5046418;28;20460;-64
2021/07/05 05:09:03;;;;;;;4.07;2.00;;;18.10;99.90;;;;;;5049379;28;20566;-67
2021/07/05 05:11:30;;;;;;;4.03;2.80;;;18.20;99.90;;;;;;5049599;28;20464;-66
2021/07/05 05:13:57;;;;;;;4.70;2.00;;;18.40;99.90;;;;;;5049878;28;20452;-66
2021/07/05 05:16:24;;;;;;;4.03;2.20;;;18.50;99.90;;;;;;5049497;28;20455;-65
2021/07/05 05:18:50;;;;;;;5.47;2.60;;;18.40;99.90;;;;;;5049866;28;20476;-65
2021/07/05 05:21:18;;;;;;;4.47;2.50;;;18.30;99.90;;;;;;5049286;28;21184;-63
2021/07/05 05:23:46;;;;;;;3.27;2.00;;;18.40;99.90;;;;;;5049555;28;20529;-66
2021/07/05 05:26:13;;;;;;;3.90;2.10;;;18.40;99.90;;;;;;5047016;28;20462;-67
2021/07/05 05:28:40;;;;;;;4.30;2.80;;;18.50;99.90;;;;;;5048449;28;20671;-63
2021/07/05 05:31:07;;;;;;;3.73;2.10;;;18.50;99.90;;;;;;5048820;28;20543;-67
2021/07/05 05:33:34;;;;;;;4.10;2.27;;;18.60;99.90;;;;;;5048971;28;20452;-66
2021/07/05 05:36:01;;;;;;;5.80;2.00;;;18.80;99.90;;;;;;5049091;28;20448;-65
2021/07/05 05:38:28;;;;;;;4.17;2.20;;;18.90;99.90;;;;;;5049390;28;20550;-65
2021/07/05 05:40:56;;;;;;;3.77;1.97;;;19.00;99.90;;;;;;5048775;28;20571;-64
2021/07/05 05:43:23;;;;;;;3.40;2.00;;;19.10;99.90;;;;;;5049692;28;20456;-65
2021/07/05 05:45:50;;;;;;;4.50;2.27;;;19.20;99.90;;;;;;5049945;28;20527;-65
2021/07/05 05:48:17;;;;;;;3.10;2.17;;;19.20;99.90;;;;;;5049744;28;20479;-64
2021/07/05 05:50:44;;;;;;;6.53;2.30;;;19.30;99.90;;;;;;5048916;28;21088;-64
2021/07/05 05:53:10;;;;;;;4.60;2.60;;;19.40;99.90;;;;;;5048779;28;20530;-65
2021/07/05 05:55:41;;;;;;;3.20;2.00;;;19.50;99.90;;;;;;5049708;28;20466;-64
2021/07/05 05:58:10;;;;;;;2.90;1.97;;;19.40;99.90;;;;;;5049125;28;20447;-64
2021/07/05 06:00:37;;;;;;;3.30;1.70;;;19.40;99.90;;;;;;5048381;28;21069;-64
2021/07/05 06:03:03;;;;;;;3.80;1.77;;;19.40;99.90;;;;;;5049331;28;20450;-64
2021/07/05 06:05:31;;;;;;;4.70;1.70;;;19.40;99.90;;;;;;5049381;28;20439;-65
2021/07/05 06:07:57;;;;;;;3.73;1.67;;;19.40;99.90;;;;;;5048814;28;20486;-64
2021/07/05 06:10:25;;;;;;;3.90;1.87;;;19.40;99.90;;;;;;5048606;28;20499;-66
2021/07/05 06:12:55;;;;;;;2.77;1.63;;;19.40;99.90;;;;;;5049336;28;20470;-65
2021/07/05 06:15:24;;;;;;;3.83;1.83;;;19.10;99.90;;;;;;5049446;28;20498;-66
2021/07/05 06:17:52;;;;;;;7.53;1.80;;;18.80;99.90;;;;;;5048795;28;20468;-64
2021/07/05 06:20:20;;;;;;;3.07;1.77;;;18.80;99.90;;;;;;5048573;28;21161;-64
2021/07/05 06:22:49;;;;;;;3.10;1.53;;;18.80;99.90;;;;;;5049333;28;20534;-68
2021/07/05 06:25:16;;;;;;;5.50;1.67;;;18.70;99.90;;;;;;5049288;28;20448;-66
2021/07/05 06:27:44;;;;;;;2.87;1.57;;;18.70;99.90;;;;;;5048674;28;20523;-68
2021/07/05 06:30:11;;;;;;;2.70;1.60;;;18.60;99.90;;;;;;5048180;28;20440;-66
2021/07/05 06:32:40;;;;;;;2.83;1.50;;;18.50;99.90;;;;;;5048929;28;20519;-66
2021/07/05 06:35:08;;;;;;;2.40;1.10;;;18.50;99.90;;;;;;5049350;28;20483;-68
2021/07/05 06:37:35;;;;;;;3.00;1.70;;;18.40;99.90;;;;;;5048833;28;20527;-67
2021/07/05 06:40:02;;;;;;;3.70;2.53;;;18.40;99.90;;;;;;5048326;28;20483;-66
2021/07/05 06:42:29;;;;;;;3.30;1.90;;;18.40;99.90;;;;;;5048861;28;21140;-66
2021/07/05 06:44:56;;;;;;;4.10;1.77;;;18.40;99.90;;;;;;5048768;28;20547;-67
2021/07/05 06:47:23;;;;;;;5.97;1.83;;;18.30;99.90;;;;;;5048822;28;20452;-66
2021/07/05 06:49:51;;;;;;;3.53;1.97;;;18.30;99.90;;;;;;5048175;28;20444;-67
2021/07/05 06:52:18;;;;;;;4.77;1.77;;;18.20;99.90;;;;;;5048980;28;20560;-65
2021/07/05 06:54:45;;;;;;;4.70;1.93;;;18.20;99.90;;;;;;5048857;28;20586;-67
2021/07/05 06:59:53;;;;;;;3.83;1.80;;;18.40;99.90;;;;;;5046117;28;20439;-67
2021/07/05 07:02:19;;;;;;;4.93;2.20;;;18.50;99.90;;;;;;5049030;28;20486;-64
2021/07/05 07:04:46;;;;;;;3.47;1.63;;;18.70;99.90;;;;;;5051620;28;20878;-67
2021/07/05 07:07:14;;;;;;;4.70;1.53;;;18.80;99.90;;;;;;5052035;28;20444;-67
2021/07/05 07:09:41;;;;;;;3.67;1.80;;;18.90;99.90;;;;;;5051595;28;20530;-68
2021/07/05 07:12:08;;;;;;;3.80;1.90;;;18.80;99.90;;;;;;5052394;28;20463;-68
2021/07/05 07:14:36;;;;;;;5.23;1.83;;;18.80;99.90;;;;;;5052373;28;20436;-68
2021/07/05 07:17:06;;;;;;;3.90;2.07;;;18.70;99.90;;;;;;5051885;28;20562;-67
2021/07/05 07:19:33;;;;;;;2.70;1.50;;;18.70;99.90;;;;;;5051336;28;20454;-66
2021/07/05 07:22:03;;;;;;;3.60;1.77;;;18.50;99.90;;;;;;5051953;28;21001;-66
2021/07/05 07:24:32;;;;;;;4.40;2.23;;;18.50;99.90;;;;;;5052176;28;20456;-66
2021/07/05 07:27:00;;;;;;;2.87;1.83;;;18.50;99.90;;;;;;5051923;28;20498;-65
2021/07/05 07:29:27;;;;;;;2.90;1.57;;;18.60;99.90;;;;;;5051133;28;20582;-66
2021/07/05 07:31:54;;;;;;;4.73;1.80;;;18.70;99.90;;;;;;5052299;28;20471;-66
2021/07/05 07:34:21;;;;;;;3.53;1.80;;;18.70;99.90;;;;;;5051827;28;20945;-66
2021/07/05 07:36:48;;;;;;;3.07;1.60;;;18.80;99.90;;;;;;5051292;28;20478;-65
2021/07/05 07:39:18;;;;;;;5.73;1.90;;;18.80;99.90;;;;;;5051127;28;20456;-66
2021/07/05 07:41:46;;;;;;;3.17;2.07;;;19.00;99.90;;;;;;5052090;28;20472;-67
2021/07/05 07:44:13;;;;;;;3.87;1.97;;;19.00;99.90;;;;;;5051831;28;20456;-68
2021/07/05 07:46:40;;;;;;;3.00;1.90;;;19.20;99.90;;;;;;5051241;28;20968;-66
2021/07/05 07:49:07;;;;;;;3.80;1.70;;;19.20;99.90;;;;;;5050827;28;20480;-64
2021/07/05 07:51:34;;;;;;;2.90;1.90;;;19.30;99.90;;;;;;5051604;28;20478;-66
2021/07/05 07:54:01;;;;;;;3.03;1.90;;;19.40;99.90;;;;;;5051464;28;21009;-66
2021/07/05 07:56:30;;;;;;;2.50;1.50;;;19.60;99.90;;;;;;5051105;28;20542;-68
2021/07/05 07:58:59;;;;;;;2.97;1.40;;;19.70;99.90;;;;;;5051348;28;20451;-64
2021/07/05 08:01:27;;;;;;;3.00;1.77;;;19.70;99.90;;;;;;5051238;28;20451;-67
2021/07/05 08:03:54;;;;;;;4.03;1.70;;;19.60;99.90;;;;;;5051715;28;20233;-66
2021/07/05 08:06:21;;;;;;;3.30;1.80;;;19.60;99.90;;;;;;5051439;28;20455;-66
2021/07/05 08:08:51;;;;;;;3.03;1.67;;;19.50;99.90;;;;;;5051307;28;20488;-67
2021/07/05 08:11:18;;;;;;;3.20;1.50;;;19.50;99.90;;;;;;5050743;28;20503;-66
2021/07/05 08:13:45;;;;;;;2.97;1.77;;;19.50;99.90;;;;;;5051366;28;20547;-66
2021/07/05 08:16:14;;;;;;;2.70;1.73;;;19.50;99.90;;;;;;5050051;28;20452;-66
2021/07/05 08:18:41;;;;;;;3.07;1.83;;;19.50;99.90;;;;;;5051519;28;21184;-66
2021/07/05 08:21:07;;;;;;;3.40;1.80;;;19.50;99.90;;;;;;5050234;28;20845;-66
2021/07/05 08:23:34;;;;;;;3.13;1.60;;;19.50;99.90;;;;;;5050756;28;20547;-66
2021/07/05 08:26:01;;;;;;;3.57;2.00;;;19.60;99.90;;;;;;5050531;28;20456;-66
2021/07/05 08:28:28;;;;;;;3.83;1.50;;;19.70;99.90;;;;;;5050725;28;20486;-66
2021/07/05 08:30:56;;;;;;;2.60;1.37;;;19.80;99.90;;;;;;5049823;28;20479;-66
2021/07/05 08:33:25;;;;;;;5.57;2.17;;;20.00;99.90;;;;;;5051025;28;20555;-66
2021/07/05 08:35:51;;;;;;;2.97;1.90;;;20.20;99.90;;;;;;5050583;28;20450;-67
2021/07/05 08:38:18;;;;;;;4.43;1.70;;;20.30;99.90;;;;;;5050778;28;20440;-66
2021/07/05 08:40:45;;;;;;;3.03;2.00;;;20.30;99.90;;;;;;5049633;28;20942;-66
2021/07/05 08:43:12;;;;;;;3.20;1.60;;;20.50;99.90;;;;;;5050498;28;20531;-66
2021/07/05 08:45:43;;;;;;;3.17;1.50;;;20.70;99.90;;;;;;5050338;28;20535;-66
2021/07/05 08:48:11;;;;;;;3.63;1.73;;;20.80;99.90;;;;;;5050379;28;20472;-66
2021/07/05 08:50:40;;;;;;;3.30;2.13;;;20.50;99.90;;;;;;5049525;28;21048;-66
2021/07/05 08:53:08;;;;;;;3.70;2.10;;;20.50;99.90;;;;;;5050649;28;20509;-65
2021/07/05 08:55:35;;;;;;;3.30;1.80;;;20.50;99.90;;;;;;5050246;28;20458;-65
2021/07/05 08:58:01;;;;;;;3.43;1.87;;;20.50;99.90;;;;;;5049656;28;20452;-65
2021/07/05 09:00:31;;;;;;;3.43;1.70;;;20.70;99.90;;;;;;5049583;28;20836;-66
2021/07/05 09:03:00;;;;;;;3.50;1.80;;;20.70;99.90;;;;;;5050567;28;20451;-66
2021/07/05 09:05:27;;;;;;;2.60;1.50;;;20.50;99.90;;;;;;5050520;28;20464;-67
2021/07/05 09:08:04;;;;;;;3.40;1.77;;;20.30;99.90;;;;;;5049447;28;20926;-66
2021/07/05 09:10:42;;;;;;;4.07;1.93;;;20.00;99.90;;;;;;5049041;28;20977;-66
2021/07/05 09:13:11;;;;;;;3.13;1.60;;;19.80;99.90;;;;;;5050358;28;20460;-66
2021/07/05 09:15:41;;;;;;;3.23;2.00;;;19.70;99.90;;;;;;5050308;28;20452;-66
2021/07/05 09:18:28;;;;;;;3.90;1.87;;;19.70;99.90;;;;;;5049589;28;20530;-66
2021/07/05 09:20:58;;;;;;;2.67;1.43;;;19.70;99.90;;;;;;5048905;28;20470;-65
2021/07/05 09:23:27;;;;;;;4.40;2.20;;;19.70;99.90;;;;;;5049819;28;20452;-66
2021/07/05 09:25:54;;;;;;;4.30;2.10;;;19.80;99.90;;;;;;5049668;28;20444;-66
2021/07/05 09:28:23;;;;;;;3.53;2.10;;;19.70;99.90;;;;;;5048656;28;20472;-66
2021/07/05 09:30:52;;;;;;;3.70;2.17;;;19.60;99.90;;;;;;5048902;28;20472;-65
2021/07/05 09:33:21;;;;;;;4.50;1.93;;;19.70;99.90;;;;;;5049654;28;20458;-66
2021/07/05 09:35:49;;;;;;;4.27;2.10;;;19.70;99.90;;;;;;5050008;28;20880;-66
2021/07/05 09:38:33;;;;;;;3.43;1.70;;;19.70;99.90;;;;;;5049728;28;20502;-67
2021/07/05 09:41:16;;;;;;;2.90;1.70;;;19.70;99.90;;;;;;5048699;28;20475;-65
2021/07/05 09:43:43;;;;;;;4.40;1.70;;;19.50;99.90;;;;;;5049487;28;20456;-65
2021/07/05 09:46:11;;;;;;;3.90;1.90;;;19.40;99.90;;;;;;5049181;28;20448;-67
2021/07/05 09:48:45;;;;;;;3.07;1.83;;;19.40;99.90;;;;;;5049603;28;20479;-65
2021/07/05 09:51:14;;;;;;;3.87;2.00;;;19.40;99.90;;;;;;5048867;28;20518;-65
2021/07/05 09:53:44;;;;;;;4.90;1.93;;;19.40;99.90;;;;;;5049877;28;20512;-66
2021/07/05 09:56:22;;;;;;;4.13;2.20;;;19.30;99.90;;;;;;5049068;28;20462;-67
2021/07/05 09:58:51;;;;;;;4.50;2.70;;;19.20;99.90;;;;;;5049380;28;20883;-67
2021/07/05 10:01:40;;;;;;;4.47;2.10;;;19.10;99.90;;;;;;5048575;28;20470;-66
2021/07/05 10:04:08;;;;;;;3.83;1.70;;;18.90;99.90;;;;;;5049369;28;20957;-65
2021/07/05 10:06:44;;;;;;;4.30;1.87;;;18.60;99.90;;;;;;5049287;28;20474;-67
2021/07/05 10:09:12;;;;;;;4.60;1.80;;;18.50;99.90;;;;;;5048771;28;20479;-64
2021/07/05 10:11:40;;;;;;;3.67;1.60;;;18.50;99.90;;;;;;5049423;28;20472;-67
2021/07/05 10:14:18;;;;;;;3.13;1.70;;;18.50;99.90;;;;;;5049652;28;20888;-65
2021/07/05 10:16:45;;;;;;;3.60;2.00;;;18.60;99.90;;;;;;5049082;28;20483;-65
2021/07/05 10:19:14;;;;;;;3.00;1.83;;;18.60;99.90;;;;;;5048584;28;20523;-66
2021/07/05 10:21:41;;;;;;;2.57;1.33;;;18.60;99.90;;;;;;5049671;28;20554;-65
2021/07/05 10:24:09;;;;;;;3.27;1.60;;;18.50;99.90;;;;;;5049695;28;20458;-66
2021/07/05 10:26:40;;;;;;;5.50;1.60;;;18.50;99.90;;;;;;5049032;28;21046;-66
2021/07/05 10:29:07;;;;;;;2.60;1.70;;;18.40;99.90;;;;;;5048718;28;20567;-66
2021/07/05 10:31:35;;;;;;;2.37;1.37;;;18.40;99.90;;;;;;5049102;28;20475;-68
2021/07/05 10:34:03;;;;;;;2.70;1.50;;;18.30;99.90;;;;;;5049242;28;20947;-66
2021/07/05 10:36:35;;;;;;;3.40;1.50;;;18.40;99.90;;;;;;5048831;28;20536;-63
2021/07/05 10:39:04;;;;;;;3.27;1.57;;;18.40;99.90;;;;;;5050391;28;20972;-65
2021/07/05 10:41:39;;;;;;;2.60;1.40;;;18.50;99.90;;;;;;5052980;28;20467;-66
2021/07/05 10:44:09;;;;;;;3.30;1.60;;;18.60;99.90;;;;;;5052926;28;20895;-66
2021/07/05 10:46:42;;;;;;;2.97;1.50;;;18.60;99.90;;;;;;5052514;28;20452;-65
2021/07/05 10:49:30;;;;;;;3.90;1.63;;;18.70;99.90;;;;;;5051867;28;20475;-67
2021/07/05 10:51:59;;;;;;;2.90;1.43;;;18.80;99.90;;;;;;5052391;28;20897;-66
2021/07/05 10:54:41;;;;;;;2.33;1.30;;;19.00;99.90;;;;;;5052578;28;20536;-66
2021/07/05 10:57:10;;;;;;;2.67;1.40;;;19.20;99.90;;;;;;5052463;28;20438;-66
2021/07/05 10:59:40;;;;;;;6.20;1.67;;;19.40;99.90;;;;;;5051929;28;20444;-68
2021/07/05 11:02:40;;;;;;;2.33;1.40;;;19.60;99.90;;;;;;5052704;28;20513;-66
2021/07/05 11:05:28;;;;;;;3.40;1.40;;;19.90;99.90;;;;;;5052141;28;20448;-66
2021/07/05 11:07:56;;;;;;;3.70;1.40;;;20.50;99.90;;;;;;5051969;28;21192;-66
2021/07/05 11:10:30;;;;;;;2.80;1.30;;;20.90;99.90;;;;;;5051309;28;20533;-66
2021/07/05 11:13:04;;;;;;;2.40;1.40;;;21.20;99.90;;;;;;5052522;28;20977;-68
2021/07/05 11:15:52;;;;;;;4.30;1.73;;;21.60;99.90;;;;;;5052362;28;20483;-66
2021/07/05 11:19:07;;;;;;;2.30;1.17;;;21.90;99.90;;;;;;5052300;28;20539;-66
2021/07/05 11:21:57;;;;;;;3.00;1.50;;;22.20;99.90;;;;;;5051869;28;20474;-66
2021/07/05 11:24:53;;;;;;;3.00;1.30;;;22.30;99.90;;;;;;5052380;28;20460;-67
2021/07/05 11:27:32;;;;;;;3.20;1.30;;;22.30;99.90;;;;;;5052112;28;20434;-65
2021/07/05 11:30:24;;;;;;;2.33;1.23;;;22.10;99.90;;;;;;5051143;28;20562;-66
2021/07/05 11:32:53;;;;;;;2.40;1.10;;;22.00;99.90;;;;;;5052069;28;20528;-65
2021/07/05 11:35:41;;;;;;;3.23;1.77;;;21.90;99.90;;;;;;5052024;28;20547;-65
2021/07/05 11:38:21;;;;;;;3.30;1.30;;;21.70;99.90;;;;;;5051966;28;20445;-67
2021/07/05 11:40:51;;;;;;;3.43;1.63;;;21.70;99.90;;;;;;5050684;28;20591;-67
2021/07/05 11:43:39;;;;;;;2.80;1.70;;;21.70;99.90;;;;;;5051624;28;21044;-67
2021/07/05 11:46:08;;;;;;;3.43;1.50;;;21.50;99.90;;;;;;5050950;28;20790;-67
2021/07/05 11:48:56;;;;;;;6.60;1.80;;;21.20;99.90;;;;;;5051544;28;20566;-65
2021/07/05 11:51:29;;;;;;;2.90;1.50;;;20.90;99.90;;;;;;5050368;28;21117;-66
2021/07/05 11:53:59;;;;;;;3.50;1.50;;;20.80;99.90;;;;;;5047774;28;20502;-67
2021/07/05 11:56:37;;;;;;;2.60;1.50;;;20.80;99.90;;;;;;5043319;28;20823;-67
2021/07/05 11:59:06;;;;;;;2.57;1.30;;;20.90;99.90;;;;;;5040482;28;20432;-67
2021/07/05 12:01:36;;;;;;;5.20;2.10;;;21.00;99.90;;;;;;5039384;28;20457;-66
2021/07/05 12:04:04;;;;;;;3.37;1.97;;;21.30;99.90;;;;;;5045212;28;20436;-68
2021/07/05 12:06:32;;;;;;;3.03;1.60;;;21.60;99.90;;;;;;5042296;28;20475;-67
2021/07/05 12:09:01;;;;;;;6.10;1.47;;;22.30;99.90;;;;;;5037850;28;20463;-67
2021/07/05 12:11:33;;;;;;;3.23;1.67;;;23.00;99.90;;;;;;5033338;28;20468;-66
2021/07/05 12:14:08;;;;;;;2.60;1.20;;;23.40;99.90;;;;;;5040893;28;20498;-67
2021/07/05 12:16:37;;;;;;;3.70;1.57;;;23.70;99.90;;;;;;5040604;28;21898;-67
2021/07/05 12:19:06;;;;;;;2.50;1.40;;;24.00;99.90;;;;;;5037439;28;20437;-67
2021/07/05 12:21:34;;;;;;;3.53;1.50;;;24.30;99.90;;;;;;5031106;28;20473;-66
2021/07/05 12:24:09;;;;;;;4.00;1.40;;;24.60;99.90;;;;;;5035093;28;20463;-70
2021/07/05 12:26:55;;;;;;;3.47;2.07;;;24.70;99.90;;;;;;5038983;28;20459;-67
2021/07/05 12:29:25;;;;;;;5.87;1.43;;;24.50;99.90;;;;;;5039668;28;20512;-68
2021/07/05 12:32:09;;;;;;;2.90;1.50;;;24.30;99.90;;;;;;5045043;28;20478;-68
2021/07/05 12:34:42;;;;;;;3.00;1.30;;;24.00;99.90;;;;;;5050505;28;20467;-69
2021/07/05 12:37:14;;;;;;;2.50;1.27;;;23.80;99.90;;;;;;5050628;28;20527;-68
2021/07/05 12:39:46;;;;;;;3.67;1.40;;;23.70;99.90;;;;;;5049695;28;20460;-67
2021/07/05 12:42:26;;;;;;;3.13;1.27;;;23.60;99.90;;;;;;5050782;28;20464;-67
2021/07/05 12:44:53;;;;;;;2.80;1.50;;;23.70;99.90;;;;;;5050645;28;20523;-67
2021/07/05 12:47:22;;;;;;;2.63;1.20;;;23.90;99.90;;;;;;5050445;28;20459;-69
2021/07/05 12:49:51;;;;;;;2.80;1.17;;;24.10;99.90;;;;;;5036605;28;20477;-68
2021/07/05 12:52:18;;;;;;;2.30;1.07;;;24.50;99.90;;;;;;5033270;28;20466;-67
2021/07/05 12:54:44;;;;;;;2.50;1.40;;;25.50;99.90;;;;;;5039510;28;20437;-69
2021/07/05 12:57:17;;;;;;;2.53;1.23;;;26.40;99.90;;;;;;5030161;28;20469;-68
2021/07/05 13:00:01;;;;;;;5.00;1.87;;;27.00;99.90;;;;;;5026571;28;20445;-70
2021/07/05 13:02:31;;;;;;;3.90;1.57;;;27.40;99.90;;;;;;5042774;28;20951;-68